Tiempo atmosférico en la estación meteorológica de El Pedregal, Guadalajara (1185 m.)



Fecha
DESCASC
Temp. máxima en grados centígrados (hora)
DESCASC
Temp. mínima en grados centígrados (hora)
DESCASC
Temp. media en grados centígrados
DESCASC
Racha de viento máxima en m/sg (hora)
DESCASC
Velocidad máxima media en intervalos de 10 minutos(hora)
DESCASC
Precipitaciones diarias en mm
DESCASC
Precipitaciones de 00:00 a 06:00 en mm
DESCASC
Precipitaciones de 06:00 a 12:00 en mm
DESCASC
Precipitaciones de 12:00 a 18:00 en mm
DESCASC
Precipitaciones de 18:00 a 24:00 en mm
DESCASC
18-11-2019 5.5 (15:30) -1.3 (23:30) 2.1 12.78 (11:20) 6.39 (11:20) 0.2 0.2 0 0 0
17-11-2019 7.4 (13:40) -1.3 (03:00) 3.1 13.61 (13:20) 8.33 (13:30) 2.8 0 0 1.2 1.6
16-11-2019 4.8 (15:10) -1.1 (07:50) 1.9 9.17 (14:10) 5.28 (13:50) 1.8 0 1.8 0 0
15-11-2019 4.8 (14:10) -1.6 (05:50) 1.6 14.17 (13:40) 8.61 (13:00) 1.4 0 1.4 0 0
14-11-2019 7.4 (00:00) -0.5 (-00:0) 3.5 17.5 (08:40) 8.33 (14:00) 3 0 2.8 0 0.2
13-11-2019 10.4 (16:10) 4.1 (00:00) 7.2 11.94 (09:10) 6.67 (09:10) 9.8 6.4 3.4 0 0
12-11-2019 7.9 (14:50) 0.1 (00:00) 4 10.28 (21:50) 6.11 (21:40) 1.2 0 0.2 0 1
11-11-2019 6.6 (16:20) -0.4 (00:40) 3.1 11.67 (17:40) 8.06 (11:10) 0.2 0 0 0.2 0
10-11-2019 4.9 (00:10) -0.6 (-00:0) 2.2 12.78 (14:10) 7.5 (12:30) 5.8 1.4 4.2 0 0.2
09-11-2019 9.3 (13:30) 0.6 (00:00) 5 14.72 (13:50) 9.17 (16:30) 0 0 0 0 0
08-11-2019 7.4 (14:10) 0 (00:00) 3.7 16.94 (15:30) 10.28 (15:30) 0 0 0 0 0
07-11-2019 10.3 (12:20) 1.1 (00:00) 5.7 14.72 (20:20) 8.89 (20:20) 1.2 0 0.2 0 1
06-11-2019 10.4 (14:30) 3.1 (00:00) 6.7 11.94 (14:20) 6.94 (10:50) 0 0 0 0 0
05-11-2019 9.4 (16:30) 3.5 (00:00) 6.4 18.61 (10:30) 11.11 (10:30) 2.2 1 0 1.2 0
04-11-2019 13.7 (15:20) 7.4 (00:00) 10.5 20 (13:30) 11.67 (13:30) 6.2 0 0 0 6.2
03-11-2019 12.5 (14:50) 7.9 (00:00) 10.2 20.83 (05:50) 11.39 (04:00) 5 0.2 4.8 0 0
02-11-2019 15.9 (12:30) 9 (00:00) 12.4 14.44 (11:40) 9.17 (11:10) 0.8 0 0 0.6 0.2
01-11-2019 18.2 (14:00) 10.7 (00:00) 14.5 13.61 (14:10) 8.89 (14:30) 1.6 0 0 0.4 1.2
31-10-2019 17.7 (14:40) 10 (22:10) 13.9 11.67 (15:20) 6.67 (13:10) 0 0 0 0 0
30-10-2019 17.4 (15:20) 6.8 (00:00) 12.1 8.33 (14:20) 5.83 (14:00) 0 0 0 0 0
29-10-2019 20.5 (16:00) 7.7 (00:00) 14.1 7.22 (00:10) 4.17 (21:10) 0 0 0 0 0
28-10-2019 21.3 (16:30) 9.4 (00:00) 15.3 7.22 (23:59) 4.17 (10:20) 0 0 0 0 0
27-10-2019 21.6 (15:00) 5.1 (00:00) 13.4 4.44 (11:00) 3.06 (13:30) 0 0 0 0 0
26-10-2019 22 (15:10) 5 (00:00) 13.5 5.56 (12:00) 3.33 (12:00) 0 0 0 0 0
25-10-2019 21.4 (17:20) 5.1 (00:00) 13.2 7.22 (05:00) 4.44 (05:00) 0 0 0 0 0
24-10-2019 13.8 (17:10) 3.8 (00:00) 8.8 11.11 (11:50) 6.94 (15:30) 0 0 0 0 0
23-10-2019 10.3 (14:00) 3.9 (00:00) 7.1 8.33 (12:10) 4.72 (12:30) 4 3.8 0 0.2 0
22-10-2019 5.3 (07:10) 1.2 (00:00) 3.3 7.22 (15:00) 4.44 (09:50) 23.8 0.2 5 17.8 0.8

Gráficas

Temp. máximas Temp. mínimas Temp. medias Precipitaciones Rachas de viento máximas Velocidades máximas media en intervalos de 10 minutos

Datos horarios

Fecha y hora oficial Temperatura (ºC) Velocidad del viento (km/h) Dirección del viento Racha (km/h) Dirección de racha Precipitación (mm) Presión (hPa) Tendencia (hPa) Humedad (%)
2019-11-20 23:00:00 2.8 0 Calma 8 Sudoeste 0 -- -- 88
2019-11-20 22:00:00 3 4 Oeste 8 Oeste 0 -- -- 89
2019-11-20 21:00:00 3 0 Calma 12 Sudoeste 0.6 -- -- 90
2019-11-20 20:00:00 3.5 8 Sudoeste 13 Sudoeste 0.6 -- -- 85
2019-11-20 19:00:00 5 6 Oeste 13 Sudoeste 0 -- -- 71
2019-11-20 18:00:00 5.5 5 Sudoeste 20 Oeste 0 -- -- 65
2019-11-20 17:00:00 6.2 13 Oeste 25 Oeste 0 -- -- 61
2019-11-20 16:00:00 7.2 9 Sudoeste 27 Oeste 0 -- -- 48
2019-11-20 15:00:00 9.8 9 Sudoeste 26 Oeste 0 -- -- 42
2019-11-20 14:00:00 8.5 13 Oeste 24 Oeste 0 -- -- 42
2019-11-20 13:00:00 8.2 7 Sur 18 Sur 0 -- -- 48
2019-11-20 12:00:00 6.9 8 Sudeste 15 Este 0 -- -- 62
2019-11-20 11:00:00 5.9 6 Sudeste 11 Sudeste 0 -- -- 60
2019-11-20 10:00:00 3.2 0 Calma 9 Oeste 0 -- -- 77
2019-11-20 09:00:00 -0.6 4 Oeste 8 Sudoeste 0 -- -- 89
2019-11-20 08:00:00 -0.7 5 Sudoeste 14 Oeste 0 -- -- 89
2019-11-20 07:00:00 0.7 12 Oeste 25 Oeste 0 -- -- 84
2019-11-20 06:00:00 0.6 10 Oeste 19 Sudoeste 0 -- -- 84
2019-11-20 05:00:00 1.5 13 Oeste 24 Sudoeste 0 -- -- 80
2019-11-20 04:00:00 1.6 11 Oeste 22 Sudoeste 0 -- -- 78
2019-11-20 03:00:00 0.7 4 Oeste 20 Sur 0 -- -- 81
2019-11-20 02:00:00 2 13 Sudoeste 21 Sudoeste 0 -- -- 76
2019-11-20 01:00:00 1.5 12 Sudoeste 21 Sudoeste 0 -- -- 82
2019-11-20 00:00:00 1.4 7 Oeste 14 Oeste 0 -- -- 83
2019-11-19 23:00:00 1.7 9 Oeste 16 Oeste 0 -- -- 82
2019-11-19 22:00:00 1.6 6 Oeste 18 Oeste 0 -- -- 82
2019-11-19 21:00:00 1.5 4 Oeste 10 Sudoeste 0 -- -- 83
2019-11-19 20:00:00 1.6 5 Noroeste 10 Oeste 0 -- -- 78
2019-11-19 19:00:00 0.5 4 Oeste 7 Oeste 0 -- -- 81
2019-11-19 18:00:00 3.6 4 Noroeste 13 Oeste 0 -- -- 72
2019-11-19 17:00:00 6 10 Oeste 23 Oeste 0 -- -- 59
2019-11-19 16:00:00 7.3 11 Noroeste 29 Sudoeste 0 -- -- 55
2019-11-19 15:00:00 6.7 14 Oeste 26 Sudoeste 0 -- -- 58
2019-11-19 14:00:00 6.4 17 Oeste 30 Oeste 0 -- -- 59
2019-11-19 13:00:00 5.4 18 Oeste 33 Oeste 0 -- -- 67
2019-11-19 12:00:00 3.4 22 Oeste 34 Oeste 0 -- -- 74
2019-11-19 11:00:00 2.5 19 Oeste 30 Oeste 0 -- -- 76
2019-11-19 10:00:00 1.4 18 Oeste 25 Oeste 0 -- -- 77
2019-11-19 09:00:00 0.6 9 Oeste 16 Oeste 0 -- -- 79
2019-11-19 08:00:00 -1.9 9 Oeste 14 Oeste 0 -- -- 87
2019-11-19 07:00:00 -1.7 9 Oeste 17 Oeste 0 -- -- 87
2019-11-19 06:00:00 -1.6 9 Oeste 14 Oeste 0 -- -- 86
2019-11-19 05:00:00 -1.2 5 Oeste 21 Oeste 0 -- -- 85
2019-11-19 04:00:00 -1.3 8 Oeste 19 Oeste 0 -- -- 87
2019-11-19 03:00:00 -1.7 11 Oeste 20 Oeste 0 -- -- 89
2019-11-19 02:00:00 -1.2 12 Oeste 19 Oeste 0 -- -- 87
2019-11-19 01:00:00 -0.6 11 Oeste 19 Oeste 0 -- -- 85
2019-11-19 00:00:00 -0.7 9 Oeste 16 Oeste 0 -- -- 86
2019-11-18 23:00:00 -0.8 9 Oeste 17 Oeste 0 -- -- 84
2019-11-18 22:00:00 -0.1 10 Oeste 18 Oeste 0 -- -- 84
2019-11-18 21:00:00 0.4 12 Oeste 22 Oeste 0 -- -- 84
2019-11-18 20:00:00 1 12 Noroeste 29 Noroeste 0 -- -- 82
2019-11-18 19:00:00 2 12 Noroeste 23 Noroeste 0 -- -- 75
2019-11-18 18:00:00 3 9 Noroeste 22 Noroeste 0 -- -- 70
2019-11-18 17:00:00 3.4 16 Noroeste 38 Noroeste 0 -- -- 70
2019-11-18 16:00:00 4.9 16 Noroeste 31 Noroeste 0 -- -- 63
2019-11-18 15:00:00 4 14 Noroeste 34 Noroeste 0 -- -- 62
2019-11-18 14:00:00 4.1 15 Noroeste 38 Noroeste 0 -- -- 70
2019-11-18 13:00:00 4.2 22 Norte 41 Norte 0 -- -- 69
2019-11-18 12:00:00 3.5 21 Norte 46 Noroeste 0 -- -- 72
2019-11-18 11:00:00 3.4 15 Noroeste 33 Noroeste 0 -- -- 79
2019-11-18 10:00:00 2.3 15 Noroeste 28 Noroeste 0 -- -- 83
2019-11-18 09:00:00 1.1 12 Noroeste 24 Noroeste 0 -- -- 92
2019-11-18 08:00:00 0.5 13 Oeste 24 Noroeste 0 -- -- 93
2019-11-18 07:00:00 1.3 13 Noroeste 27 Noroeste 0 -- -- 94
2019-11-18 06:00:00 1.2 17 Noroeste 28 Noroeste 0 -- -- 93
2019-11-18 05:00:00 1.5 10 Noroeste 19 Oeste 0 -- -- 92
2019-11-18 04:00:00 1.5 14 Oeste 27 Oeste 0 -- -- 90
2019-11-18 03:00:00 1.4 15 Oeste 23 Oeste 0.2 -- -- 92
2019-11-18 02:00:00 0.9 9 Oeste 14 Oeste 0 -- -- 95
2019-11-18 01:00:00 1 6 Oeste 16 Oeste 0 -- -- 95
2019-11-18 00:00:00 1.9 10 Oeste 21 Noroeste 0 -- -- 95
2019-11-17 23:00:00 2.7 11 Oeste 27 Noroeste 1.4 -- -- 94
2019-11-17 22:00:00 4 8 Oeste 25 Oeste 0 -- -- 91
2019-11-17 21:00:00 3.8 13 Oeste 26 Oeste 0 -- -- 91
2019-11-17 20:00:00 4 13 Oeste 27 Oeste 0 -- -- 89
2019-11-17 19:00:00 3.3 12 Oeste 31 Oeste 0.2 -- -- 89
2019-11-17 18:00:00 3.6 15 Oeste 35 Oeste 0 -- -- 90
2019-11-17 17:00:00 4 19 Oeste 45 Oeste 0 -- -- 86
2019-11-17 16:00:00 3.8 23 Oeste 44 Oeste 0.4 -- -- 88
2019-11-17 15:00:00 4.6 24 Oeste 47 Oeste 0.8 -- -- 86
2019-11-17 14:00:00 6.3 28 Oeste 49 Oeste 0 -- -- 70
2019-11-17 13:00:00 6.9 22 Oeste 43 Oeste 0 -- -- 65
2019-11-17 12:00:00 5.7 27 Oeste 48 Oeste 0 -- -- 68
2019-11-17 11:00:00 4.3 23 Oeste 45 Oeste 0 -- -- 69
2019-11-17 10:00:00 2.6 22 Oeste 36 Oeste 0 -- -- 75
2019-11-17 09:00:00 1.8 20 Oeste 35 Oeste 0 -- -- 75
2019-11-17 08:00:00 0.3 21 Oeste 33 Oeste 0 -- -- 81
2019-11-17 07:00:00 -0.8 10 Oeste 22 Sudoeste 0 -- -- 84
2019-11-17 06:00:00 -1.3 11 Oeste 26 Oeste 0 -- -- 84
2019-11-17 05:00:00 -1 16 Oeste 24 Oeste 0 -- -- 84
2019-11-17 04:00:00 -1 9 Oeste 27 Oeste 0 -- -- 84
2019-11-17 03:00:00 -1.3 4 Oeste 19 Sudoeste 0 -- -- 87
2019-11-17 02:00:00 -0.5 13 Oeste 24 Oeste 0 -- -- 84
2019-11-17 01:00:00 -0.6 6 Oeste 21 Oeste 0 -- -- 85
2019-11-17 00:00:00 -0.2 8 Noroeste 18 Oeste 0 -- -- 84
2019-11-16 23:00:00 -0.6 5 Noroeste 13 Sudoeste 0 -- -- 84
2019-11-16 22:00:00 0.2 8 Oeste 22 Oeste 0 -- -- 80
2019-11-16 21:00:00 1 8 Oeste 16 Oeste 0 -- -- 76
2019-11-16 20:00:00 0.5 6 Oeste 13 Oeste 0 -- -- 81
2019-11-16 19:00:00 2.2 9 Oeste 23 Noroeste 0 -- -- 71
2019-11-16 18:00:00 2.8 10 Noroeste 29 Noroeste 0 -- -- 71
2019-11-16 17:00:00 3.9 11 Noroeste 30 Oeste 0 -- -- 70
2019-11-16 16:00:00 4.3 17 Oeste 32 Oeste 0 -- -- 65
2019-11-16 15:00:00 4.7 16 Oeste 33 Sudoeste 0 -- -- 65
2019-11-16 14:00:00 3.7 17 Oeste 31 Oeste 0 -- -- 71
2019-11-16 13:00:00 3.6 17 Oeste 30 Oeste 0 -- -- 70
2019-11-16 12:00:00 2.6 15 Oeste 23 Oeste 0.2 -- -- 76
2019-11-16 11:00:00 1.6 11 Oeste 21 Oeste 0.6 -- -- 78
2019-11-16 10:00:00 1.1 12 Oeste 19 Oeste 1 -- -- 80
2019-11-16 09:00:00 -0.1 11 Oeste 18 Oeste 0 -- -- 87
2019-11-16 08:00:00 -1.1 11 Oeste 22 Oeste 0 -- -- 92
2019-11-16 07:00:00 -0.7 12 Noroeste 23 Noroeste 0 -- -- 91
2019-11-16 06:00:00 -0.5 10 Noroeste 18 Noroeste 0 -- -- 94
2019-11-16 05:00:00 -0.2 5 Noroeste 16 Norte 0 -- -- 93
2019-11-16 04:00:00 0.2 8 Noroeste 23 Noroeste 0 -- -- 95
2019-11-16 03:00:00 0.4 9 Oeste 18 Oeste 0 -- -- 92
2019-11-16 02:00:00 0.4 9 Oeste 21 Oeste 0 -- -- 92
2019-11-16 01:00:00 0.1 10 Oeste 21 Oeste 0 -- -- 94
2019-11-16 00:00:00 0.3 15 Oeste 26 Oeste 0 -- -- 95
2019-11-15 23:00:00 0.4 10 Oeste 21 Oeste 0 -- -- 95
2019-11-15 22:00:00 1.8 7 Noroeste 17 Noroeste 0 -- -- 86
2019-11-15 21:00:00 1.8 8 Oeste 26 Oeste 0 -- -- 83
2019-11-15 20:00:00 2.2 10 Oeste 26 Oeste 0 -- -- 78
2019-11-15 19:00:00 2.4 13 Oeste 26 Oeste 0 -- -- 77
2019-11-15 18:00:00 2.7 11 Oeste 39 Oeste 0 -- -- 76
2019-11-15 17:00:00 3.4 17 Oeste 39 Oeste 0 -- -- 72
2019-11-15 16:00:00 4 24 Oeste 44 Oeste 0 -- -- 67
2019-11-15 15:00:00 4.1 18 Noroeste 48 Oeste 0 -- -- 74
2019-11-15 14:00:00 3.8 27 Oeste 51 Oeste 0 -- -- 72
2019-11-15 13:00:00 3.9 31 Oeste 49 Oeste 0 -- -- 75
2019-11-15 12:00:00 3 24 Oeste 46 Oeste 0 -- -- 80
2019-11-15 11:00:00 2.1 26 Oeste 43 Oeste 0.2 -- -- 81
2019-11-15 10:00:00 1.6 21 Oeste 37 Oeste 1.2 -- -- 84
2019-11-15 09:00:00 0.4 10 Oeste 21 Oeste 0 -- -- 87
2019-11-15 08:00:00 -0.7 14 Oeste 31 Oeste 0 -- -- 91
2019-11-15 07:00:00 -1.2 10 Oeste 26 Oeste 0 -- -- 90
2019-11-15 06:00:00 -1.6 8 Noroeste 29 Oeste 0 -- -- 90
2019-11-15 05:00:00 -0.8 19 Oeste 31 Oeste 0 -- -- 90
2019-11-15 04:00:00 -0.5 13 Oeste 32 Oeste 0 -- -- 94
2019-11-15 03:00:00 -0.2 14 Oeste 27 Oeste 0 -- -- 94
2019-11-15 02:00:00 -0.3 14 Oeste 31 Oeste 0 -- -- 92
2019-11-15 01:00:00 -0.6 18 Oeste 36 Oeste 0 -- -- 94
2019-11-15 00:00:00 -0.5 24 Oeste 37 Oeste 0 -- -- 96
2019-11-14 23:00:00 -0.2 14 Noroeste 40 Noroeste 0 -- -- 96
2019-11-14 22:00:00 0.2 18 Oeste 29 Oeste 0.2 -- -- 95
2019-11-14 21:00:00 1.4 10 Oeste 30 Oeste 0 -- -- 87
2019-11-14 20:00:00 1 12 Oeste 31 Oeste 0 -- -- 89
2019-11-14 19:00:00 0.7 0 Calma 36 Oeste 0 -- -- 83
2019-11-14 18:00:00 2.1 20 Oeste 41 Oeste 0 -- -- 81
2019-11-14 17:00:00 1.9 18 Oeste 50 Oeste 0 -- -- 76
2019-11-14 16:00:00 3.9 23 Oeste 45 Oeste 0 -- -- 63
2019-11-14 15:00:00 4 19 Oeste 45 Oeste 0 -- -- 60
2019-11-14 14:00:00 3.2 30 Oeste 51 Oeste 0 -- -- 70
2019-11-14 13:00:00 4.3 24 Oeste 45 Oeste 0 -- -- 67
2019-11-14 12:00:00 2.8 12 Oeste 21 Noroeste 0.2 -- -- 84
2019-11-14 11:00:00 1 11 Oeste 31 Sudoeste 0.6 -- -- 90
2019-11-14 10:00:00 0.7 12 Oeste 28 Oeste 1.2 -- -- 95
2019-11-14 09:00:00 0.6 17 Oeste 63 Oeste 0.8 -- -- 94
2019-11-14 08:00:00 4.8 19 Oeste 42 Sudoeste 0 -- -- 84
2019-11-14 07:00:00 6 17 Sudoeste 45 Sudoeste 0 -- -- 76
2019-11-14 06:00:00 6.3 22 Oeste 49 Sudoeste 0 -- -- 74
2019-11-14 05:00:00 7 19 Oeste 44 Oeste 0 -- -- 75
2019-11-14 04:00:00 7.2 18 Oeste 48 Oeste 0 -- -- 79
2019-11-14 03:00:00 7.1 21 Oeste 44 Oeste 0 -- -- 83
2019-11-14 02:00:00 7 17 Oeste 41 Sudoeste 0 -- -- 82
2019-11-14 01:00:00 7.3 17 Oeste 40 Noroeste 0 -- -- 77
2019-11-14 00:00:00 7.4 20 Oeste 36 Oeste 0 -- -- 76
2019-11-13 23:00:00 7 13 Oeste 32 Oeste 0 -- -- 74
2019-11-13 22:00:00 6.1 10 Oeste 27 Oeste 0 -- -- 77
2019-11-13 21:00:00 5.5 10 Oeste 19 Oeste 0 -- -- 79
2019-11-13 20:00:00 4.8 8 Oeste 18 Oeste 0 -- -- 83
2019-11-13 19:00:00 5.4 2 Oeste 24 Noroeste 0 -- -- 78
2019-11-13 18:00:00 7.7 15 Oeste 34 Noroeste 0 -- -- 66
2019-11-13 17:00:00 8.7 7 Noroeste 23 Noroeste 0 -- -- 64
2019-11-13 16:00:00 10.1 18 Noroeste 36 Noroeste 0 -- -- 57
2019-11-13 15:00:00 9.9 15 Noroeste 29 Noroeste 0 -- -- 64
2019-11-13 14:00:00 8.5 10 Noroeste 27 Noroeste 0 -- -- 69
2019-11-13 13:00:00 7.7 12 Noroeste 26 Norte 0 -- -- 77
2019-11-13 12:00:00 7.9 13 Noroeste 33 Noroeste 0 -- -- 78
2019-11-13 11:00:00 5.5 16 Noroeste 28 Noroeste 0 -- -- 91
2019-11-13 10:00:00 5.5 17 Noroeste 43 Noroeste 0.4 -- -- 92
2019-11-13 09:00:00 7.1 24 Noroeste 42 Noroeste 2 -- -- 95
2019-11-13 08:00:00 7.4 22 Oeste 39 Oeste 0.2 -- -- 95
2019-11-13 07:00:00 6.7 17 Oeste 28 Oeste 0.8 -- -- 96
2019-11-13 06:00:00 6.5 16 Oeste 36 Oeste 1.2 -- -- 94
2019-11-13 05:00:00 6.5 18 Oeste 33 Oeste 2.2 -- -- 94
2019-11-13 04:00:00 5.8 16 Oeste 39 Oeste 2.8 -- -- 93
2019-11-13 03:00:00 5.9 18 Oeste 37 Oeste 0.2 -- -- 91
2019-11-13 02:00:00 5.6 18 Oeste 35 Oeste 0 -- -- 92
2019-11-13 01:00:00 4.7 20 Oeste 36 Oeste 0 -- -- 91
2019-11-13 00:00:00 4.1 17 Oeste 32 Oeste 0 -- -- 90
2019-11-12 23:00:00 3.8 18 Oeste 33 Oeste 0.8 -- -- 90
2019-11-12 22:00:00 4.2 21 Oeste 37 Oeste 0.2 -- -- 84
2019-11-12 21:00:00 4.3 13 Oeste 30 Oeste 0 -- -- 80
2019-11-12 20:00:00 3.8 8 Noroeste 18 Oeste 0 -- -- 81
2019-11-12 19:00:00 4.6 11 Oeste 21 Oeste 0 -- -- 76
2019-11-12 18:00:00 5.7 15 Noroeste 27 Noroeste 0 -- -- 69
2019-11-12 17:00:00 7.2 15 Noroeste 37 Oeste 0 -- -- 62
2019-11-12 16:00:00 7.5 10 Noroeste 32 Noroeste 0 -- -- 63
2019-11-12 15:00:00 7.6 12 Noroeste 32 Noroeste 0 -- -- 63
2019-11-12 14:00:00 6.9 19 Oeste 32 Oeste 0 -- -- 63
2019-11-12 13:00:00 6.2 17 Noroeste 31 Oeste 0 -- -- 68
2019-11-12 12:00:00 6.2 18 Oeste 30 Oeste 0 -- -- 72
2019-11-12 11:00:00 4.5 15 Oeste 31 Oeste 0 -- -- 79
2019-11-12 10:00:00 3.9 21 Oeste 30 Oeste 0.2 -- -- 81
2019-11-12 09:00:00 1.8 19 Oeste 27 Oeste 0 -- -- 84
2019-11-12 08:00:00 1 17 Oeste 23 Oeste 0 -- -- 86
2019-11-12 07:00:00 0.7 14 Oeste 21 Oeste 0 -- -- 86
2019-11-12 06:00:00 0.2 12 Oeste 17 Oeste 0 -- -- 89
2019-11-12 05:00:00 0.4 11 Oeste 18 Oeste 0 -- -- 87
2019-11-12 04:00:00 1.3 12 Oeste 23 Oeste 0 -- -- 84
2019-11-12 03:00:00 1.5 13 Oeste 32 Noroeste 0 -- -- 86
2019-11-12 02:00:00 1.9 16 Noroeste 32 Noroeste 0 -- -- 82
2019-11-12 01:00:00 0.8 10 Oeste 22 Oeste 0 -- -- 88
2019-11-12 00:00:00 1.9 13 Oeste 27 Noroeste 0 -- -- 80
2019-11-11 23:00:00 1.8 14 Oeste 27 Noroeste 0 -- -- 84
2019-11-11 22:00:00 2.5 12 Noroeste 25 Noroeste 0 -- -- 81
2019-11-11 21:00:00 3.1 11 Noroeste 27 Noroeste 0 -- -- 80
2019-11-11 20:00:00 3.7 9 Noroeste 33 Noroeste 0 -- -- 79
2019-11-11 19:00:00 4.6 12 Noroeste 27 Norte 0 -- -- 83
2019-11-11 18:00:00 5.9 13 Noroeste 42 Oeste 0 -- -- 86
2019-11-11 17:00:00 6.5 16 Noroeste 36 Oeste 0 -- -- 85
2019-11-11 16:00:00 6.4 17 Noroeste 33 Oeste 0 -- -- 86
2019-11-11 15:00:00 5.3 20 Oeste 34 Oeste 0 -- -- 89
2019-11-11 14:00:00 4.5 17 Oeste 31 Oeste 0.2 -- -- 90
2019-11-11 13:00:00 5 21 Oeste 32 Oeste 0 -- -- 79
2019-11-11 12:00:00 3.6 22 Oeste 41 Oeste 0 -- -- 87
2019-11-11 11:00:00 3.6 27 Oeste 41 Oeste 0 -- -- 81
2019-11-11 10:00:00 2.7 18 Oeste 30 Oeste 0 -- -- 87
2019-11-11 09:00:00 1.7 17 Oeste 31 Oeste 0 -- -- 90
2019-11-11 08:00:00 1.2 18 Oeste 32 Oeste 0 -- -- 91
2019-11-11 07:00:00 0.9 15 Oeste 26 Oeste 0 -- -- 91
2019-11-11 06:00:00 0.8 14 Oeste 25 Oeste 0 -- -- 89
2019-11-11 05:00:00 0.7 17 Oeste 26 Sudoeste 0 -- -- 88
2019-11-11 04:00:00 0.7 13 Oeste 28 Oeste 0 -- -- 89
2019-11-11 03:00:00 0.4 14 Oeste 22 Oeste 0 -- -- 90
2019-11-11 02:00:00 0.2 16 Oeste 24 Oeste 0 -- -- 89
2019-11-11 01:00:00 -0.3 16 Oeste 29 Oeste 0 -- -- 90
2019-11-11 00:00:00 0.2 10 Oeste 25 Noroeste 0 -- -- 87
2019-11-10 23:00:00 0.5 14 Oeste 40 Oeste 0 -- -- 85
2019-11-10 22:00:00 0.8 20 Oeste 29 Oeste 0 -- -- 83
2019-11-10 21:00:00 1.2 16 Oeste 29 Oeste 0.2 -- -- 83
2019-11-10 20:00:00 1.6 12 Noroeste 33 Noroeste 0 -- -- 84
2019-11-10 19:00:00 2.4 18 Noroeste 36 Oeste 0 -- -- 81
2019-11-10 18:00:00 3 16 Noroeste 35 Noroeste 0 -- -- 77
2019-11-10 17:00:00 3.5 14 Noroeste 37 Noroeste 0 -- -- 77
2019-11-10 16:00:00 4.2 23 Noroeste 44 Noroeste 0 -- -- 72
2019-11-10 15:00:00 3.6 19 Noroeste 46 Noroeste 0 -- -- 79
2019-11-10 14:00:00 4 21 Noroeste 42 Oeste 0 -- -- 76
2019-11-10 13:00:00 3.8 22 Oeste 41 Oeste 0 -- -- 78
2019-11-10 12:00:00 2.7 22 Noroeste 40 Noroeste 0.6 -- -- 80
2019-11-10 11:00:00 3 19 Oeste 36 Oeste 1.6 -- -- 81
2019-11-10 10:00:00 1.9 17 Oeste 28 Oeste 1 -- -- 83
2019-11-10 09:00:00 0.8 13 Oeste 19 Oeste 0.4 -- -- 88
2019-11-10 08:00:00 -0.4 0 Calma 17 Oeste 0.2 -- -- 92
2019-11-10 07:00:00 0.4 8 Noroeste 20 Noroeste 0.4 -- -- 97
2019-11-10 06:00:00 0.5 11 Noroeste 24 Noroeste 0.4 -- -- 98
2019-11-10 05:00:00 0.4 7 Oeste 15 Oeste 0.2 -- -- 98
2019-11-10 04:00:00 0.1 10 Oeste 17 Oeste 0.2 -- -- 98
2019-11-10 03:00:00 0.2 13 Oeste 19 Oeste 0.2 -- -- 98
2019-11-10 02:00:00 0.1 11 Noroeste 33 Noroeste 0 -- -- 97
2019-11-10 01:00:00 0.5 20 Noroeste 42 Noroeste 0.4 -- -- 95
2019-11-10 00:00:00 4.8 17 Noroeste 40 Oeste 0 -- -- 90
2019-11-09 23:00:00 4.7 23 Oeste 38 Oeste 0 -- -- 91
2019-11-09 22:00:00 4.8 19 Oeste 40 Oeste 0 -- -- 86
2019-11-09 21:00:00 4.7 15 Oeste 39 Oeste 0 -- -- 82
2019-11-09 20:00:00 5.4 17 Oeste 32 Oeste 0 -- -- 76
2019-11-09 19:00:00 5.5 17 Oeste 34 Oeste 0 -- -- 76
2019-11-09 18:00:00 5.9 18 Oeste 44 Oeste 0 -- -- 72
2019-11-09 17:00:00 6.5 30 Oeste 51 Oeste 0 -- -- 70
2019-11-09 16:00:00 7.5 28 Oeste 49 Oeste 0 -- -- 67
2019-11-09 15:00:00 8 30 Oeste 51 Oeste 0 -- -- 63
2019-11-09 14:00:00 8.5 32 Oeste 53 Oeste 0 -- -- 55
2019-11-09 13:00:00 8.2 26 Oeste 47 Oeste 0 -- -- 55
2019-11-09 12:00:00 6.7 29 Oeste 47 Oeste 0 -- -- 61
2019-11-09 11:00:00 5.2 28 Oeste 42 Oeste 0 -- -- 68
2019-11-09 10:00:00 4.1 24 Oeste 37 Oeste 0 -- -- 71
2019-11-09 09:00:00 2.3 17 Oeste 36 Oeste 0 -- -- 79
2019-11-09 08:00:00 0.6 19 Oeste 28 Oeste 0 -- -- 84
2019-11-09 07:00:00 0.9 19 Oeste 34 Oeste 0 -- -- 83
2019-11-09 06:00:00 1.1 14 Oeste 27 Oeste 0 -- -- 83
2019-11-09 05:00:00 0.7 18 Oeste 31 Oeste 0 -- -- 83
2019-11-09 04:00:00 0.6 12 Noroeste 28 Oeste 0 -- -- 84
2019-11-09 03:00:00 1.3 18 Oeste 36 Oeste 0 -- -- 80
2019-11-09 02:00:00 1.6 17 Oeste 34 Oeste 0 -- -- 79
2019-11-09 01:00:00 2.4 22 Oeste 41 Oeste 0 -- -- 75
2019-11-09 00:00:00 2.9 17 Noroeste 36 Oeste 0 -- -- 73
2019-11-08 23:00:00 3.6 19 Oeste 34 Oeste 0 -- -- 70
2019-11-08 22:00:00 3.9 18 Oeste 46 Oeste 0 -- -- 69
2019-11-08 21:00:00 4.7 26 Oeste 54 Oeste 0 -- -- 64
2019-11-08 20:00:00 5 28 Oeste 54 Oeste 0 -- -- 63
2019-11-08 19:00:00 5.2 27 Oeste 50 Oeste 0 -- -- 61
2019-11-08 18:00:00 5.4 26 Oeste 50 Oeste 0 -- -- 60
2019-11-08 17:00:00 5.5 30 Oeste 57 Oeste 0 -- -- 58
2019-11-08 16:00:00 5.4 34 Oeste 61 Oeste 0 -- -- 58
2019-11-08 15:00:00 5.5 26 Noroeste 59 Oeste 0 -- -- 58
2019-11-08 14:00:00 7.1 31 Oeste 58 Oeste 0 -- -- 57
2019-11-08 13:00:00 6.1 31 Oeste 53 Oeste 0 -- -- 63
2019-11-08 12:00:00 4.6 23 Oeste 45 Oeste 0 -- -- 70
2019-11-08 11:00:00 3.6 28 Oeste 51 Oeste 0 -- -- 72
2019-11-08 10:00:00 2.5 25 Noroeste 43 Oeste 0 -- -- 75
2019-11-08 09:00:00 1.5 27 Oeste 44 Oeste 0 -- -- 78
2019-11-08 08:00:00 0.4 12 Oeste 33 Oeste 0 -- -- 83
2019-11-08 07:00:00 0 15 Oeste 32 Oeste 0 -- -- 85
2019-11-08 06:00:00 0.3 18 Oeste 40 Oeste 0 -- -- 83
2019-11-08 05:00:00 0.4 19 Oeste 36 Oeste 0 -- -- 83
2019-11-08 04:00:00 0.5 17 Oeste 36 Oeste 0 -- -- 82
2019-11-08 03:00:00 0.7 16 Oeste 33 Oeste 0 -- -- 82
2019-11-08 02:00:00 0.9 14 Oeste 28 Oeste 0 -- -- 85
2019-11-08 01:00:00 1.3 16 Oeste 30 Oeste 0 -- -- 86
2019-11-08 00:00:00 1.1 8 Noroeste 17 Oeste 0 -- -- 90
2019-11-07 23:00:00 1.3 9 Oeste 21 Oeste 0 -- -- 87
2019-11-07 22:00:00 1.3 13 Oeste 28 Oeste 0.4 -- -- 88
2019-11-07 21:00:00 1.1 15 Oeste 53 Oeste 0.6 -- -- 94
2019-11-07 20:00:00 4.7 16 Oeste 35 Oeste 0 -- -- 61
2019-11-07 19:00:00 5.1 18 Oeste 30 Oeste 0 -- -- 59
2019-11-07 18:00:00 5.6 18 Oeste 40 Oeste 0 -- -- 58
2019-11-07 17:00:00 7.6 21 Oeste 39 Oeste 0 -- -- 52
2019-11-07 16:00:00 8.4 22 Oeste 46 Oeste 0 -- -- 52
2019-11-07 15:00:00 8.6 23 Noroeste 43 Noroeste 0 -- -- 50
2019-11-07 14:00:00 7.8 25 Noroeste 42 Noroeste 0 -- -- 63
2019-11-07 13:00:00 9.5 17 Noroeste 42 Oeste 0 -- -- 70
2019-11-07 12:00:00 8.8 23 Oeste 40 Oeste 0 -- -- 70
2019-11-07 11:00:00 8.6 19 Oeste 44 Noroeste 0 -- -- 76
2019-11-07 10:00:00 8.9 24 Oeste 43 Oeste 0 -- -- 78
2019-11-07 09:00:00 8 19 Oeste 35 Oeste 0 -- -- 83
2019-11-07 08:00:00 6.9 13 Oeste 26 Oeste 0.2 -- -- 89
2019-11-07 07:00:00 6.4 10 Oeste 24 Oeste 0 -- -- 91
2019-11-07 06:00:00 6.3 13 Oeste 26 Sudoeste 0 -- -- 88
2019-11-07 05:00:00 6.2 11 Oeste 29 Oeste 0 -- -- 87
2019-11-07 04:00:00 6.4 20 Oeste 32 Oeste 0 -- -- 81
2019-11-07 03:00:00 5.7 12 Oeste 28 Sudoeste 0 -- -- 82
2019-11-07 02:00:00 5.8 14 Oeste 32 Sudoeste 0 -- -- 80
2019-11-07 01:00:00 5.4 14 Oeste 36 Oeste 0 -- -- 79
2019-11-07 00:00:00 5.2 15 Oeste 27 Sudoeste 0 -- -- 78
2019-11-06 23:00:00 4.8 10 Oeste 22 Oeste 0 -- -- 78
2019-11-06 22:00:00 4.5 14 Oeste 20 Oeste 0 -- -- 79
2019-11-06 21:00:00 4.6 6 Oeste 21 Oeste 0 -- -- 79
2019-11-06 20:00:00 5.6 11 Oeste 21 Oeste 0 -- -- 75
2019-11-06 19:00:00 6.2 5 Oeste 10 Oeste 0 -- -- 76
2019-11-06 18:00:00 7.2 5 Noroeste 21 Noroeste 0 -- -- 67
2019-11-06 17:00:00 9.6 13 Noroeste 27 Oeste 0 -- -- 56
2019-11-06 16:00:00 9.2 13 Noroeste 32 Oeste 0 -- -- 55
2019-11-06 15:00:00 9.1 15 Oeste 43 Oeste 0 -- -- 60
2019-11-06 14:00:00 9.2 18 Oeste 41 Oeste 0 -- -- 63
2019-11-06 13:00:00 8.3 19 Oeste 34 Oeste 0 -- -- 66
2019-11-06 12:00:00 8.2 20 Oeste 39 Oeste 0 -- -- 68
2019-11-06 11:00:00 6.5 23 Oeste 40 Oeste 0 -- -- 72
2019-11-06 10:00:00 5.7 21 Oeste 36 Oeste 0 -- -- 80
2019-11-06 09:00:00 4.3 15 Oeste 27 Oeste 0 -- -- 86
2019-11-06 08:00:00 3.3 17 Oeste 29 Oeste 0 -- -- 88
2019-11-06 07:00:00 3.1 13 Oeste 30 Oeste 0 -- -- 89
2019-11-06 06:00:00 3.3 15 Oeste 27 Oeste 0 -- -- 90
2019-11-06 05:00:00 3.4 17 Oeste 36 Oeste 0 -- -- 89
2019-11-06 04:00:00 3.6 23 Oeste 37 Oeste 0 -- -- 89
2019-11-06 03:00:00 3.4 15 Oeste 37 Oeste 0 -- -- 89
2019-11-06 02:00:00 3.8 14 Noroeste 32 Oeste 0 -- -- 88
2019-11-06 01:00:00 4 23 Oeste 34 Oeste 0 -- -- 88
2019-11-06 00:00:00 4.5 20 Oeste 33 Oeste 0 -- -- 87
2019-11-05 23:00:00 5.2 20 Oeste 33 Oeste 0 -- -- 87
2019-11-05 22:00:00 5.5 17 Oeste 32 Oeste 0 -- -- 88
2019-11-05 21:00:00 5.1 15 Oeste 33 Oeste 0 -- -- 89
2019-11-05 20:00:00 5.1 18 Oeste 32 Oeste 0 -- -- 88
2019-11-05 19:00:00 5.1 18 Oeste 40 Oeste 0 -- -- 87
2019-11-05 18:00:00 5.3 21 Oeste 40 Oeste 1 -- -- 87
2019-11-05 17:00:00 6.7 30 Oeste 56 Oeste 0.2 -- -- 78
2019-11-05 16:00:00 8.7 31 Oeste 58 Oeste 0 -- -- 69
2019-11-05 15:00:00 9.1 31 Oeste 58 Oeste 0 -- -- 67
2019-11-05 14:00:00 8.1 29 Oeste 56 Oeste 0 -- -- 69
2019-11-05 13:00:00 8 35 Oeste 59 Oeste 0 -- -- 67
2019-11-05 12:00:00 8 34 Oeste 63 Oeste 0 -- -- 69
2019-11-05 11:00:00 7.1 31 Oeste 67 Oeste 0 -- -- 71
2019-11-05 10:00:00 6.6 30 Oeste 56 Oeste 0 -- -- 72
2019-11-05 09:00:00 5.4 27 Oeste 46 Oeste 0 -- -- 78
2019-11-05 08:00:00 4.1 22 Oeste 45 Oeste 0 -- -- 86
2019-11-05 07:00:00 3.6 19 Oeste 45 Oeste 0 -- -- 85
2019-11-05 06:00:00 4.4 23 Oeste 43 Oeste 0 -- -- 83
2019-11-05 05:00:00 4.3 14 Oeste 34 Oeste 0 -- -- 86
2019-11-05 04:00:00 4.8 17 Oeste 32 Oeste 0 -- -- 87
2019-11-05 03:00:00 5.8 13 Oeste 36 Oeste 0.2 -- -- 89
2019-11-05 02:00:00 6.7 21 Oeste 38 Oeste 0.6 -- -- 89
2019-11-05 01:00:00 6.8 19 Oeste 46 Oeste 0.2 -- -- 90
2019-11-05 00:00:00 7.4 21 Oeste 38 Oeste 1 -- -- 92
2019-11-04 23:00:00 7.7 18 Oeste 54 Oeste 1.6 -- -- 93
2019-11-04 22:00:00 8.5 25 Oeste 47 Oeste 3.6 -- -- 93
2019-11-04 21:00:00 9.8 23 Oeste 47 Oeste 0 -- -- 86
2019-11-04 20:00:00 10.2 23 Oeste 55 Sudoeste 0 -- -- 80
2019-11-04 19:00:00 10.7 27 Oeste 59 Sudoeste 0 -- -- 74
2019-11-04 18:00:00 11.1 18 Oeste 53 Oeste 0 -- -- 73
2019-11-04 17:00:00 12.3 27 Sudoeste 62 Oeste 0 -- -- 68
2019-11-04 16:00:00 13 33 Sudoeste 59 Sudoeste 0 -- -- 64
2019-11-04 15:00:00 13.1 27 Oeste 68 Oeste 0 -- -- 66
2019-11-04 14:00:00 13.4 33 Oeste 72 Oeste 0 -- -- 64
2019-11-04 13:00:00 13.4 30 Oeste 62 Oeste 0 -- -- 66
2019-11-04 12:00:00 12.8 30 Oeste 59 Oeste 0 -- -- 65
2019-11-04 11:00:00 12.3 36 Oeste 68 Oeste 0 -- -- 67
2019-11-04 10:00:00 11.3 31 Oeste 60 Oeste 0 -- -- 75
2019-11-04 09:00:00 11 29 Oeste 48 Oeste 0 -- -- 73
2019-11-04 08:00:00 9.6 22 Oeste 49 Oeste 0 -- -- 80
2019-11-04 07:00:00 9.7 28 Oeste 61 Oeste 0 -- -- 81
2019-11-04 06:00:00 9.9 30 Oeste 53 Oeste 0 -- -- 84
2019-11-04 05:00:00 10 23 Oeste 53 Sudoeste 0 -- -- 85
2019-11-04 04:00:00 10 26 Oeste 52 Oeste 0 -- -- 84
2019-11-04 03:00:00 9.7 25 Oeste 48 Oeste 0 -- -- 82
2019-11-04 02:00:00 9.5 28 Oeste 52 Oeste 0 -- -- 78
2019-11-04 01:00:00 9.5 18 Oeste 41 Oeste 0 -- -- 74
2019-11-04 00:00:00 9.4 22 Oeste 49 Oeste 0 -- -- 69
2019-11-03 23:00:00 8.6 17 Oeste 39 Oeste 0 -- -- 67
2019-11-03 22:00:00 8.6 25 Oeste 39 Oeste 0 -- -- 67
2019-11-03 21:00:00 8.8 20 Oeste 35 Oeste 0 -- -- 68
2019-11-03 20:00:00 9.1 16 Oeste 27 Oeste 0 -- -- 65
2019-11-03 19:00:00 9.3 22 Oeste 52 Oeste 0 -- -- 62
2019-11-03 18:00:00 10.1 27 Oeste 46 Noroeste 0 -- -- 57
2019-11-03 17:00:00 11.1 22 Oeste 53 Oeste 0 -- -- 55
2019-11-03 16:00:00 12.1 29 Oeste 54 Oeste 0 -- -- 52
2019-11-03 15:00:00 11.5 30 Oeste 53 Oeste 0 -- -- 49
2019-11-03 14:00:00 11.3 32 Noroeste 61 Oeste 0 -- -- 50
2019-11-03 13:00:00 10.8 34 Oeste 63 Noroeste 0 -- -- 48
2019-11-03 12:00:00 10.6 33 Oeste 67 Oeste 0 -- -- 57
2019-11-03 11:00:00 9.4 30 Noroeste 66 Oeste 0 -- -- 72
2019-11-03 10:00:00 8.3 29 Noroeste 56 Noroeste 4.2 -- -- 84
2019-11-03 09:00:00 9.8 31 Oeste 72 Oeste 0.6 -- -- 87
2019-11-03 08:00:00 10.7 39 Oeste 71 Oeste 0 -- -- 78
2019-11-03 07:00:00 10.2 36 Oeste 72 Oeste 0 -- -- 81
2019-11-03 06:00:00 9.9 38 Oeste 75 Oeste 0 -- -- 82
2019-11-03 05:00:00 9.7 32 Oeste 66 Oeste 0 -- -- 82
2019-11-03 04:00:00 10 41 Oeste 61 Oeste 0 -- -- 78
2019-11-03 03:00:00 10 30 Oeste 54 Oeste 0.2 -- -- 76
2019-11-03 02:00:00 10.2 24 Oeste 43 Oeste 0 -- -- 77
2019-11-03 01:00:00 10.8 23 Oeste 37 Oeste 0 -- -- 77
2019-11-03 00:00:00 11.1 18 Oeste 39 Oeste 0 -- -- 79
2019-11-02 23:00:00 11 18 Oeste 36 Oeste 0 -- -- 83
2019-11-02 22:00:00 11.4 14 Oeste 29 Oeste 0.2 -- -- 88
2019-11-02 21:00:00 12.1 11 Sudoeste 29 Sudoeste 0 -- -- 81
2019-11-02 20:00:00 11.7 12 Oeste 30 Sudoeste 0 -- -- 83
2019-11-02 19:00:00 11.7 15 Oeste 37 Oeste 0 -- -- 83
2019-11-02 18:00:00 12.1 12 Oeste 26 Oeste 0 -- -- 86
2019-11-02 17:00:00 12.3 15 Oeste 42 Sudoeste 0.6 -- -- 88
2019-11-02 16:00:00 14.7 23 Oeste 44 Oeste 0 -- -- 70
2019-11-02 15:00:00 14.9 28 Oeste 48 Oeste 0 -- -- 68
2019-11-02 14:00:00 15.3 24 Oeste 47 Oeste 0 -- -- 70
2019-11-02 13:00:00 15.9 28 Oeste 51 Oeste 0 -- -- 65
2019-11-02 12:00:00 15.6 33 Oeste 52 Sudoeste 0 -- -- 67
2019-11-02 11:00:00 14.5 30 Oeste 51 Oeste 0 -- -- 71
2019-11-02 10:00:00 14.3 27 Oeste 48 Oeste 0 -- -- 73
2019-11-02 09:00:00 13 21 Oeste 36 Oeste 0 -- -- 81
2019-11-02 08:00:00 11.6 15 Oeste 26 Oeste 0 -- -- 88
2019-11-02 07:00:00 10.8 14 Oeste 26 Sudoeste 0 -- -- 90
2019-11-02 06:00:00 9.7 2 Noroeste 15 Oeste 0 -- -- 90
2019-11-02 05:00:00 11.2 6 Noroeste 31 Sudoeste 0 -- -- 88
2019-11-02 04:00:00 11.4 13 Oeste 30 Oeste 0 -- -- 87
2019-11-02 03:00:00 11.5 14 Oeste 30 Oeste 0 -- -- 88
2019-11-02 02:00:00 11.9 18 Oeste 34 Sudoeste 0 -- -- 87
2019-11-02 01:00:00 12.5 18 Oeste 30 Oeste 0 -- -- 88
2019-11-02 00:00:00 12.5 14 Oeste 28 Oeste 0 -- -- 88
2019-11-01 23:00:00 12.9 15 Oeste 24 Oeste 0 -- -- 88
2019-11-01 22:00:00 12.6 10 Oeste 22 Oeste 0 -- -- 90
2019-11-01 21:00:00 13 12 Oeste 30 Oeste 0.2 -- -- 91
2019-11-01 20:00:00 13.6 14 Oeste 34 Oeste 0.2 -- -- 91
2019-11-01 19:00:00 13.7 16 Oeste 36 Oeste 0.8 -- -- 90
2019-11-01 18:00:00 14 13 Oeste 36 Oeste 0.2 -- -- 89
2019-11-01 17:00:00 14.9 15 Oeste 42 Oeste 0.2 -- -- 87
2019-11-01 16:00:00 16.5 22 Oeste 45 Oeste 0 -- -- 74
2019-11-01 15:00:00 18.2 25 Oeste 49 Oeste 0 -- -- 65
2019-11-01 14:00:00 18.2 27 Oeste 49 Oeste 0 -- -- 64
2019-11-01 13:00:00 16.9 27 Oeste 44 Oeste 0 -- -- 67
2019-11-01 12:00:00 15.9 26 Oeste 43 Oeste 0 -- -- 75
2019-11-01 11:00:00 15 24 Oeste 42 Oeste 0 -- -- 81
2019-11-01 10:00:00 14.8 21 Oeste 37 Oeste 0 -- -- 83
2019-11-01 09:00:00 13.6 17 Oeste 27 Oeste 0 -- -- 90
2019-11-01 08:00:00 11.5 15 Oeste 31 Oeste 0 -- -- 95
2019-11-01 07:00:00 11.5 9 Oeste 21 Oeste 0 -- -- 95
2019-11-01 06:00:00 11.5 10 Noroeste 25 Sudoeste 0 -- -- 95
2019-11-01 05:00:00 11.4 15 Oeste 26 Oeste 0 -- -- 92
2019-11-01 04:00:00 11.6 9 Oeste 19 Oeste 0 -- -- 85
2019-11-01 03:00:00 10.9 6 Noroeste 19 Oeste 0 -- -- 86
2019-11-01 02:00:00 11.2 9 Oeste 19 Oeste 0 -- -- 86
2019-11-01 01:00:00 11.4 11 Oeste 19 Oeste 0 -- -- 86
2019-11-01 00:00:00 10.8 10 Oeste 18 Oeste 0 -- -- 88
2019-10-31 23:00:00 10.7 13 Oeste 17 Oeste 0 -- -- 87
2019-10-31 22:00:00 10.1 6 Oeste 9 Oeste 0 -- -- 86
2019-10-31 21:00:00 10.4 0 Calma 14 Noroeste 0 -- -- 84
2019-10-31 20:00:00 11.3 8 Oeste 15 Noroeste 0 -- -- 80
2019-10-31 19:00:00 12.9 8 Noroeste 24 Oeste 0 -- -- 72
2019-10-31 18:00:00 14.2 14 Noroeste 31 Noroeste 0 -- -- 66
2019-10-31 17:00:00 15.3 19 Noroeste 40 Oeste 0 -- -- 61
2019-10-31 16:00:00 16.6 19 Noroeste 42 Noroeste 0 -- -- 56
2019-10-31 15:00:00 17.2 19 Noroeste 40 Oeste 0 -- -- 54
2019-10-31 14:00:00 17.1 21 Noroeste 41 Noroeste 0 -- -- 56
2019-10-31 13:00:00 16.7 19 Noroeste 38 Noroeste 0 -- -- 58
2019-10-31 12:00:00 14.6 17 Noroeste 39 Noroeste 0 -- -- 67
2019-10-31 11:00:00 13.3 19 Oeste 35 Oeste 0 -- -- 79
2019-10-31 10:00:00 12.7 17 Oeste 31 Noroeste 0 -- -- 85
2019-10-31 09:00:00 12.5 14 Oeste 26 Oeste 0 -- -- 88
2019-10-31 08:00:00 11.3 16 Oeste 30 Oeste 0 -- -- 93
2019-10-31 07:00:00 11.5 17 Oeste 31 Oeste 0 -- -- 94
2019-10-31 06:00:00 11.4 15 Oeste 28 Oeste 0 -- -- 94
2019-10-31 05:00:00 11.2 10 Oeste 21 Oeste 0 -- -- 92
2019-10-31 04:00:00 11.5 10 Oeste 24 Oeste 0 -- -- 87
2019-10-31 03:00:00 11 9 Oeste 17 Oeste 0 -- -- 89
2019-10-31 02:00:00 11.2 10 Oeste 18 Oeste 0 -- -- 87
2019-10-31 01:00:00 11.6 9 Oeste 22 Oeste 0 -- -- 86
2019-10-31 00:00:00 12.1 13 Oeste 23 Oeste 0 -- -- 82
2019-10-30 23:00:00 12.3 14 Oeste 25 Oeste 0 -- -- 79
2019-10-30 22:00:00 12.4 10 Oeste 21 Oeste 0 -- -- 80
2019-10-30 21:00:00 12.4 9 Oeste 19 Oeste 0 -- -- 76
2019-10-30 20:00:00 13.2 12 Oeste 23 Oeste 0 -- -- 73
2019-10-30 19:00:00 13.7 12 Oeste 21 Oeste 0 -- -- 71
2019-10-30 18:00:00 14.6 8 Oeste 24 Oeste 0 -- -- 67
2019-10-30 17:00:00 15.9 13 Oeste 28 Oeste 0 -- -- 63
2019-10-30 16:00:00 16.7 15 Oeste 28 Oeste 0 -- -- 59
2019-10-30 15:00:00 16.4 16 Oeste 30 Oeste 0 -- -- 61
2019-10-30 14:00:00 16.6 21 Oeste 29 Oeste 0 -- -- 61
2019-10-30 13:00:00 15.8 12 Oeste 21 Oeste 0 -- -- 64
2019-10-30 12:00:00 14.9 12 Oeste 19 Noroeste 0 -- -- 70
2019-10-30 11:00:00 14.6 12 Oeste 22 Oeste 0 -- -- 71
2019-10-30 10:00:00 14.9 6 Oeste 16 Oeste 0 -- -- 69
2019-10-30 09:00:00 12.5 4 Noroeste 12 Oeste 0 -- -- 80
2019-10-30 08:00:00 8.8 10 Oeste 15 Oeste 0 -- -- 94
2019-10-30 07:00:00 6.8 3 Sudoeste 7 Noroeste 0 -- -- 96
2019-10-30 06:00:00 7.7 0 Calma 6 Oeste 0 -- -- 95
2019-10-30 05:00:00 8.1 0 Calma 3 Oeste 0 -- -- 95
2019-10-30 04:00:00 9.3 0 Calma 8 Noroeste 0 -- -- 94
2019-10-30 03:00:00 10.5 4 Oeste 17 Oeste 0 -- -- 91
2019-10-30 02:00:00 10.6 10 Oeste 17 Noroeste 0 -- -- 93
2019-10-30 01:00:00 10.8 12 Oeste 15 Oeste 0 -- -- 90
2019-10-30 00:00:00 10.8 3 Noroeste 18 Sudoeste 0 -- -- 91
2019-10-29 23:00:00 10.9 13 Oeste 19 Oeste 0 -- -- 91
2019-10-29 22:00:00 11.3 12 Oeste 24 Oeste 0 -- -- 87
2019-10-29 21:00:00 13.2 12 Oeste 19 Oeste 0 -- -- 78
2019-10-29 20:00:00 14.3 5 Oeste 8 Noroeste 0 -- -- 74
2019-10-29 19:00:00 14.7 0 Calma 6 Este 0 -- -- 70
2019-10-29 18:00:00 16 5 Noroeste 15 Norte 0 -- -- 64
2019-10-29 17:00:00 17.6 8 Norte 14 Norte 0 -- -- 57
2019-10-29 16:00:00 20.5 6 Noroeste 21 Oeste 0 -- -- 48
2019-10-29 15:00:00 19.8 7 Noroeste 18 Oeste 0 -- -- 51
2019-10-29 14:00:00 19.5 6 Sudoeste 17 Oeste 0 -- -- 54
2019-10-29 13:00:00 16.7 6 Noroeste 17 Oeste 0 -- -- 59
2019-10-29 12:00:00 16.7 9 Oeste 17 Oeste 0 -- -- 65
2019-10-29 11:00:00 15.8 8 Oeste 19 Oeste 0 -- -- 68
2019-10-29 10:00:00 13.4 9 Oeste 17 Oeste 0 -- -- 76
2019-10-29 09:00:00 11.9 10 Oeste 16 Oeste 0 -- -- 79
2019-10-29 08:00:00 8.1 6 Oeste 13 Sudoeste 0 -- -- 89
2019-10-29 07:00:00 8.1 0 Calma 8 Sudoeste 0 -- -- 90
2019-10-29 06:00:00 9.8 5 Oeste 11 Oeste 0 -- -- 81
2019-10-29 05:00:00 9.5 4 Oeste 15 Noroeste 0 -- -- 81
2019-10-29 04:00:00 9.9 13 Oeste 18 Noroeste 0 -- -- 77
2019-10-29 03:00:00 10.7 5 Oeste 15 Sudoeste 0 -- -- 73
2019-10-29 02:00:00 12.8 9 Oeste 21 Sudoeste 0 -- -- 62
2019-10-29 01:00:00 13 11 Oeste 26 Sudoeste 0 -- -- 59
2019-10-29 00:00:00 13.8 13 Oeste 26 Oeste 0 -- -- 54
2019-10-28 23:00:00 12.9 10 Oeste 19 Sudoeste 0 -- -- 68
2019-10-28 22:00:00 12 11 Oeste 17 Oeste 0 -- -- 71
2019-10-28 21:00:00 12.9 10 Oeste 21 Sudoeste 0 -- -- 67
2019-10-28 20:00:00 13.9 12 Oeste 22 Sudoeste 0 -- -- 63
2019-10-28 19:00:00 14.3 9 Oeste 14 Oeste 0 -- -- 60
2019-10-28 18:00:00 16.1 6 Oeste 15 Oeste 0 -- -- 53
2019-10-28 17:00:00 20.6 9 Oeste 18 Oeste 0 -- -- 38
2019-10-28 16:00:00 21.1 11 Oeste 21 Oeste 0 -- -- 37
2019-10-28 15:00:00 20.9 12 Oeste 22 Oeste 0 -- -- 38
2019-10-28 14:00:00 20.7 12 Oeste 21 Oeste 0 -- -- 42
2019-10-28 13:00:00 18 8 Oeste 22 Noroeste 0 -- -- 48
2019-10-28 12:00:00 16.5 12 Oeste 20 Oeste 0 -- -- 50
2019-10-28 11:00:00 15 10 Oeste 22 Oeste 0 -- -- 63
2019-10-28 10:00:00 12.5 10 Oeste 18 Oeste 0 -- -- 70
2019-10-28 09:00:00 11.8 6 Oeste 10 Oeste 0 -- -- 70
2019-10-28 08:00:00 10.7 5 Oeste 9 Noroeste 0 -- -- 76
2019-10-28 07:00:00 10.6 0 Calma 6 Sudoeste 0 -- -- 77
2019-10-28 06:00:00 10.5 0 Calma 4 Sudoeste 0 -- -- 79
2019-10-28 05:00:00 10.3 2 Sudoeste 4 Oeste 0 -- -- 81
2019-10-28 04:00:00 9.4 0 Calma 4 Sudoeste 0 -- -- 82
2019-10-28 03:00:00 9.9 0 Calma 8 Este 0 -- -- 79
2019-10-28 02:00:00 10.5 4 Oeste 8 Sudoeste 0 -- -- 74
2019-10-28 01:00:00 9.5 0 Calma 5 Oeste 0 -- -- 79
2019-10-28 00:00:00 10 0 Calma 6 Oeste 0 -- -- 77
2019-10-27 23:00:00 10.8 6 Oeste 10 Oeste 0 -- -- 75
2019-10-27 22:00:00 11.7 4 Sudoeste 9 Oeste 0 -- -- 71
2019-10-27 21:00:00 12.1 5 Oeste 12 Oeste 0 -- -- 69
2019-10-27 20:00:00 11.9 0 Calma 6 Oeste 0 -- -- 67
2019-10-27 19:00:00 13.6 4 Sudoeste 10 Sudoeste 0 -- -- 58
2019-10-27 18:00:00 14.7 4 Sur 14 Este 0 -- -- 53
2019-10-27 17:00:00 19.7 8 Este 14 Este 0 -- -- 45
2019-10-27 16:00:00 18.8 9 Este 15 Este 0 -- -- 50
2019-10-27 15:00:00 21.6 7 Este 12 Este 0 -- -- 44
2019-10-27 14:00:00 19.7 9 Este 15 Este 0 -- -- 50
2019-10-27 13:00:00 20.6 7 Este 14 Sudeste 0 -- -- 46
2019-10-27 12:00:00 19.3 6 Oeste 14 Oeste 0 -- -- 43
2019-10-27 11:00:00 16.6 10 Noroeste 16 Oeste 0 -- -- 50
2019-10-27 10:00:00 17.8 0 Calma 3 Noroeste 0 -- -- 56
2019-10-27 09:00:00 10.8 0 Calma 13 Sudoeste 0 -- -- 77
2019-10-27 08:00:00 7 6 Oeste 10 Oeste 0 -- -- 85
2019-10-27 07:00:00 5.4 5 Oeste 13 Oeste 0 -- -- 90
2019-10-27 06:00:00 5.9 7 Oeste 12 Oeste 0 -- -- 90
2019-10-27 05:00:00 5.3 0 Calma 8 Oeste 0 -- -- 91
2019-10-27 04:00:00 5.8 3 Oeste 11 Oeste 0 -- -- 88
2019-10-27 03:00:00 6.1 8 Oeste 12 Oeste 0 -- -- 87
2019-10-27 02:00:00 7.1 5 Sudoeste 8 Sudoeste 0 -- -- 83
2019-10-27 01:00:00 9 7 Oeste 11 Oeste 0 -- -- 75
2019-10-27 00:00:00 9.2 0 Calma 13 Oeste 0 -- -- 74
2019-10-26 23:00:00 9.9 8 Oeste 12 Oeste 0 -- -- 72
2019-10-26 22:00:00 11.3 9 Oeste 13 Oeste 0 -- -- 65
2019-10-26 21:00:00 12.6 9 Oeste 12 Oeste 0 -- -- 60
2019-10-26 20:00:00 10.6 5 Oeste 8 Sudoeste 0 -- -- 69
2019-10-26 19:00:00 15.3 5 Sur 10 Este 0 -- -- 52
2019-10-26 18:00:00 21 7 Este 13 Este 0 -- -- 38
2019-10-26 17:00:00 20.6 8 Sudeste 14 Este 0 -- -- 38
2019-10-26 16:00:00 21.1 5 Sudeste 16 Este 0 -- -- 37
2019-10-26 15:00:00 21.4 6 Noroeste 15 Noroeste 0 -- -- 33
2019-10-26 14:00:00 20.4 6 Noroeste 15 Noroeste 0 -- -- 34
2019-10-26 13:00:00 18.9 10 Oeste 19 Noroeste 0 -- -- 38
2019-10-26 12:00:00 18 12 Oeste 20 Oeste 0 -- -- 42
2019-10-26 11:00:00 17.5 5 Oeste 10 Sudoeste 0 -- -- 43
2019-10-26 10:00:00 12.7 2 Sudeste 5 Sudoeste 0 -- -- 65
2019-10-26 09:00:00 6.7 2 Oeste 8 Oeste 0 -- -- 79
2019-10-26 08:00:00 5.2 4 Oeste 9 Oeste 0 -- -- 85
2019-10-26 07:00:00 6 5 Oeste 8 Oeste 0 -- -- 84
2019-10-26 06:00:00 5 2 Sudoeste 13 Oeste 0 -- -- 89
2019-10-26 05:00:00 5.8 3 Oeste 6 Oeste 0 -- -- 91
2019-10-26 04:00:00 5.6 0 Calma 8 Oeste 0 -- -- 91
2019-10-26 03:00:00 6.2 4 Sudoeste 9 Oeste 0 -- -- 90
2019-10-26 02:00:00 6.4 3 Oeste 8 Oeste 0 -- -- 89
2019-10-26 01:00:00 7.6 3 Sudoeste 9 Oeste 0 -- -- 87
2019-10-26 00:00:00 7.5 0 Calma 10 Oeste 0 -- -- 87
2019-10-25 23:00:00 9 7 Oeste 11 Sudoeste 0 -- -- 83
2019-10-25 22:00:00 9.7 8 Sudoeste 12 Sudoeste 0 -- -- 81
2019-10-25 21:00:00 9.5 6 Oeste 10 Oeste 0 -- -- 80
2019-10-25 20:00:00 10.8 6 Oeste 9 Oeste 0 -- -- 75
2019-10-25 19:00:00 16 3 Noroeste 10 Norte 0 -- -- 58
2019-10-25 18:00:00 20.8 9 Oeste 17 Oeste 0 -- -- 43
2019-10-25 17:00:00 20.6 11 Oeste 21 Oeste 0 -- -- 42
2019-10-25 16:00:00 20.5 9 Noroeste 20 Oeste 0 -- -- 43
2019-10-25 15:00:00 20 8 Oeste 20 Oeste 0 -- -- 47
2019-10-25 14:00:00 18.3 9 Oeste 21 Oeste 0 -- -- 54
2019-10-25 13:00:00 16.8 9 Oeste 16 Oeste 0 -- -- 55
2019-10-25 12:00:00 15.6 4 Oeste 11 Oeste 0 -- -- 60
2019-10-25 11:00:00 14.2 3 Sudeste 10 Oeste 0 -- -- 72
2019-10-25 10:00:00 10.4 5 Oeste 19 Oeste 0 -- -- 82
2019-10-25 09:00:00 7.3 10 Oeste 16 Oeste 0 -- -- 94
2019-10-25 08:00:00 5.8 2 Norte 15 Noroeste 0 -- -- 94
2019-10-25 07:00:00 5.5 2 Norte 14 Oeste 0 -- -- 93
2019-10-25 06:00:00 7.5 6 Oeste 23 Oeste 0 -- -- 92
2019-10-25 05:00:00 8.2 16 Oeste 26 Oeste 0 -- -- 89
2019-10-25 04:00:00 7.1 7 Noroeste 16 Oeste 0 -- -- 93
2019-10-25 03:00:00 6.9 12 Oeste 19 Oeste 0 -- -- 91
2019-10-25 02:00:00 7 9 Oeste 17 Oeste 0 -- -- 91
2019-10-25 01:00:00 7.2 7 Oeste 18 Oeste 0 -- -- 90
2019-10-25 00:00:00 7.8 9 Oeste 24 Oeste 0 -- -- 87
2019-10-24 23:00:00 8.1 13 Oeste 28 Oeste 0 -- -- 86
2019-10-24 22:00:00 8.5 13 Oeste 26 Oeste 0 -- -- 85
2019-10-24 21:00:00 9.2 8 Oeste 27 Noroeste 0 -- -- 82
2019-10-24 20:00:00 10.4 10 Noroeste 22 Noroeste 0 -- -- 76
2019-10-24 19:00:00 11.3 10 Noroeste 25 Noroeste 0 -- -- 67
2019-10-24 18:00:00 12.6 12 Noroeste 31 Noroeste 0 -- -- 61
2019-10-24 17:00:00 13 18 Oeste 35 Oeste 0 -- -- 55
2019-10-24 16:00:00 12.7 20 Oeste 38 Oeste 0 -- -- 53
2019-10-24 15:00:00 12 18 Noroeste 33 Noroeste 0 -- -- 55
2019-10-24 14:00:00 10.5 18 Oeste 38 Oeste 0 -- -- 61
2019-10-24 13:00:00 9.3 15 Noroeste 30 Oeste 0 -- -- 68
2019-10-24 12:00:00 7.1 16 Oeste 40 Oeste 0 -- -- 78
2019-10-24 11:00:00 6.3 18 Oeste 33 Oeste 0 -- -- 80
2019-10-24 10:00:00 6.3 14 Oeste 24 Noroeste 0 -- -- 82
2019-10-24 09:00:00 5.6 10 Noroeste 28 Noroeste 0 -- -- 90
2019-10-24 08:00:00 5.7 12 Oeste 26 Oeste 0 -- -- 94
2019-10-24 07:00:00 6 16 Oeste 26 Oeste 0 -- -- 91
2019-10-24 06:00:00 5.9 14 Oeste 26 Oeste 0 -- -- 91
2019-10-24 05:00:00 5.6 14 Oeste 22 Oeste 0 -- -- 92
2019-10-24 04:00:00 5.3 12 Oeste 21 Oeste 0 -- -- 92
2019-10-24 03:00:00 4.7 11 Oeste 18 Oeste 0 -- -- 92
2019-10-24 02:00:00 3.8 9 Oeste 22 Sudoeste 0 -- -- 92
2019-10-24 01:00:00 4.3 13 Oeste 27 Oeste 0 -- -- 89
2019-10-24 00:00:00 3.9 13 Oeste 23 Sudoeste 0 -- -- 89
2019-10-23 23:00:00 4.7 11 Sudoeste 23 Sudoeste 0 -- -- 88
2019-10-23 22:00:00 5.8 13 Oeste 24 Oeste 0 -- -- 85
2019-10-23 21:00:00 6.1 12 Oeste 23 Oeste 0 -- -- 79
2019-10-23 20:00:00 6 8 Oeste 20 Oeste 0 -- -- 77
2019-10-23 19:00:00 7 8 Sudoeste 21 Sudoeste 0 -- -- 73
2019-10-23 18:00:00 9.9 10 Sudoeste 23 Sudoeste 0 -- -- 64
2019-10-23 17:00:00 9.3 12 Sudoeste 26 Sudoeste 0.2 -- -- 67
2019-10-23 16:00:00 8.1 7 Sur 19 Sudoeste 0 -- -- 75
2019-10-23 15:00:00 8.5 10 Oeste 17 Oeste 0 -- -- 66
2019-10-23 14:00:00 10.3 12 Sur 22 Oeste 0 -- -- 61
2019-10-23 13:00:00 8 9 Oeste 30 Sudoeste 0 -- -- 72
2019-10-23 12:00:00 8.8 11 Sudoeste 23 Sudoeste 0 -- -- 70
2019-10-23 11:00:00 7.7 10 Oeste 23 Sudoeste 0 -- -- 76
2019-10-23 10:00:00 5.2 13 Oeste 24 Oeste 0 -- -- 85
2019-10-23 09:00:00 4.9 8 Oeste 22 Oeste 0 -- -- 91
2019-10-23 08:00:00 4.8 4 Sudoeste 15 Oeste 0 -- -- 96
2019-10-23 07:00:00 4.4 6 Oeste 13 Oeste 0 -- -- 98
2019-10-23 06:00:00 4.4 6 Sudoeste 11 Sudoeste 0 -- -- 98
2019-10-23 05:00:00 5 3 Oeste 5 Sudoeste 0.4 -- -- 98
2019-10-23 04:00:00 5.1 5 Nordeste 8 Nordeste 0.8 -- -- 98
2019-10-23 03:00:00 5.1 5 Este 8 Este 1.2 -- -- 97
2019-10-23 02:00:00 5.1 4 Nordeste 9 Norte 0.4 -- -- 97
2019-10-23 01:00:00 5.1 5 Norte 9 Norte 1 -- -- 97
2019-10-23 00:00:00 5.1 2 Norte 6 Nordeste 0.2 -- -- 96
2019-10-22 23:00:00 5 3 Norte 5 Nordeste 0 -- -- 95
2019-10-22 22:00:00 4.8 0 Calma 3 Noroeste 0 -- -- 95
2019-10-22 21:00:00 4.7 0 Calma 7 Norte 0 -- -- 95
2019-10-22 20:00:00 4.6 0 Calma 4 Oeste 0 -- -- 95
2019-10-22 19:00:00 4.4 0 Calma 11 Norte 0.6 -- -- 95
2019-10-22 18:00:00 4.8 3 Noroeste 12 Noroeste 0.8 -- -- 94
2019-10-22 17:00:00 4.5 5 Noroeste 17 Noroeste 2 -- -- 94
2019-10-22 16:00:00 4.4 10 Noroeste 22 Oeste 5 -- -- 95
2019-10-22 15:00:00 5.1 13 Oeste 26 Noroeste 3 -- -- 95
2019-10-22 14:00:00 5 6 Noroeste 23 Este 3 -- -- 97
2019-10-22 13:00:00 5.2 12 Nordeste 23 Nordeste 4 -- -- 97
2019-10-22 12:00:00 5.2 8 Norte 16 Norte 2.4 -- -- 97
2019-10-22 11:00:00 4.8 10 Norte 23 Nordeste 1.4 -- -- 97
2019-10-22 10:00:00 4.6 15 Nordeste 25 Nordeste 1.2 -- -- 97
2019-10-22 09:00:00 4.7 14 Nordeste 23 Nordeste 0 -- -- 96
2019-10-22 08:00:00 5.1 9 Nordeste 19 Nordeste 0 -- -- 96
2019-10-22 07:00:00 5.2 5 Nordeste 10 Nordeste 0 -- -- 97
2019-10-22 06:00:00 4.8 7 Nordeste 11 Nordeste 0 -- -- 97
2019-10-22 05:00:00 2.9 0 Calma 6 Oeste 0 -- -- 97
2019-10-22 04:00:00 2 5 Oeste 8 Oeste 0 -- -- 97
2019-10-22 03:00:00 1.9 2 Oeste 5 Oeste 0 -- -- 97
2019-10-22 02:00:00 1.7 3 Oeste 9 Oeste 0.2 -- -- 95
2019-10-22 01:00:00 1.6 5 Oeste 6 Oeste 0 -- -- 95
2019-10-22 00:00:00 2.1 5 Oeste 9 Oeste 0 -- -- 95